createdAt,value
2023-03-15T00:02:16.577Z,1.03
2023-03-15T00:04:45.065Z,0.93
2023-03-15T00:07:13.369Z,0.80
2023-03-15T00:09:41.220Z,0.90
2023-03-15T00:12:09.709Z,0.53
2023-03-15T00:14:39.304Z,0.70
2023-03-15T00:17:07.199Z,0.50
2023-03-15T00:19:36.031Z,0.60
2023-03-15T00:22:04.002Z,1.00
2023-03-15T00:24:32.559Z,0.60
2023-03-15T00:27:00.498Z,0.67
2023-03-15T00:29:28.345Z,0.60
2023-03-15T00:31:57.542Z,0.70
2023-03-15T00:34:26.776Z,0.60
2023-03-15T00:36:54.869Z,0.70
2023-03-15T00:39:25.629Z,0.90
2023-03-15T00:41:56.654Z,0.63
2023-03-15T00:44:24.880Z,1.30
2023-03-15T00:46:52.803Z,0.63
2023-03-15T00:49:22.025Z,1.00
2023-03-15T00:51:49.889Z,1.03
2023-03-15T00:54:17.778Z,1.17
2023-03-15T00:56:45.729Z,0.83
2023-03-15T00:59:13.515Z,0.80
2023-03-15T01:01:44.704Z,1.00
2023-03-15T01:04:13.355Z,0.70
2023-03-15T01:06:43.087Z,0.93
2023-03-15T01:09:11.279Z,0.97
2023-03-15T01:11:39.112Z,0.80
2023-03-15T01:14:08.818Z,0.90
2023-03-15T01:16:37.166Z,0.70
2023-03-15T01:19:05.429Z,0.70
2023-03-15T01:21:33.245Z,1.00
2023-03-15T01:24:02.677Z,0.90
2023-03-15T01:26:30.864Z,0.80
2023-03-15T01:28:58.910Z,0.63
2023-03-15T01:31:30.139Z,0.73
2023-03-15T01:33:59.236Z,0.97
2023-03-15T01:36:27.234Z,0.90
2023-03-15T01:38:55.271Z,0.63
2023-03-15T01:41:25.808Z,0.60
2023-03-15T01:43:53.732Z,0.77
2023-03-15T01:46:26.938Z,0.90
2023-03-15T01:49:02.548Z,0.70
2023-03-15T01:51:39.312Z,0.80
2023-03-15T01:54:11.348Z,0.60
2023-03-15T01:56:44.042Z,0.63
2023-03-15T01:59:16.271Z,0.63
2023-03-15T02:01:46.027Z,0.80
2023-03-15T02:04:18.374Z,0.73
2023-03-15T02:06:48.000Z,0.60
2023-03-15T02:09:18.768Z,0.87
2023-03-15T02:11:48.826Z,0.80
2023-03-15T02:14:16.861Z,0.70
2023-03-15T02:16:45.564Z,0.80
2023-03-15T02:19:36.406Z,0.70
2023-03-15T02:22:16.610Z,0.90
2023-03-15T02:24:52.751Z,0.60
2023-03-15T02:27:28.082Z,0.63
2023-03-15T02:29:55.953Z,0.70
2023-03-15T02:32:23.954Z,0.93
2023-03-15T02:34:51.874Z,0.63
2023-03-15T02:37:19.840Z,0.70
2023-03-15T02:39:47.750Z,0.53
2023-03-15T02:42:16.075Z,0.97
2023-03-15T02:44:46.883Z,0.80
2023-03-15T02:47:19.564Z,1.00
2023-03-15T02:49:51.827Z,0.90
2023-03-15T02:52:19.672Z,0.90
2023-03-15T02:54:47.601Z,0.90
2023-03-15T02:57:17.230Z,0.70
2023-03-15T02:59:47.390Z,0.90
2023-03-15T03:02:15.315Z,0.80
2023-03-15T03:04:43.942Z,0.70
2023-03-15T03:07:11.981Z,1.20
2023-03-15T03:09:39.846Z,1.00
2023-03-15T03:12:08.423Z,0.80
2023-03-15T03:14:36.277Z,0.80
2023-03-15T03:17:05.685Z,0.63
2023-03-15T03:19:33.473Z,0.83
2023-03-15T03:22:01.385Z,0.70
2023-03-15T03:24:29.526Z,1.30
2023-03-15T03:26:58.207Z,0.80
2023-03-15T03:29:26.614Z,0.90
2023-03-15T03:31:54.550Z,1.00
2023-03-15T03:34:23.772Z,1.30
2023-03-15T03:36:51.979Z,1.17
2023-03-15T03:39:19.845Z,1.23
2023-03-15T03:41:47.694Z,1.27
2023-03-15T03:44:15.752Z,1.43
2023-03-15T03:46:43.957Z,1.40
2023-03-15T03:49:12.008Z,1.60
2023-03-15T03:51:41.716Z,1.50
2023-03-15T03:54:09.564Z,1.70
2023-03-15T03:56:37.953Z,1.57
2023-03-15T03:59:05.820Z,1.63
2023-03-15T04:01:33.661Z,1.93
2023-03-15T04:04:01.484Z,1.70
2023-03-15T04:06:29.639Z,2.40
2023-03-15T04:08:58.885Z,1.80
2023-03-15T04:11:26.998Z,1.90
2023-03-15T04:13:55.317Z,1.80
2023-03-15T04:16:24.660Z,1.50
2023-03-15T04:18:56.392Z,1.50
2023-03-15T04:21:24.300Z,1.63
2023-03-15T04:23:52.253Z,1.60
2023-03-15T04:26:21.384Z,1.63
2023-03-15T04:28:49.309Z,1.80
2023-03-15T04:31:17.245Z,1.83
2023-03-15T04:33:45.499Z,1.80
2023-03-15T04:36:18.313Z,1.50
2023-03-15T04:38:47.588Z,2.03
2023-03-15T04:41:16.019Z,1.83
2023-03-15T04:43:46.105Z,1.63
2023-03-15T04:46:14.105Z,2.43
2023-03-15T04:48:43.001Z,1.67
2023-03-15T04:51:10.842Z,1.60
2023-03-15T04:53:39.761Z,1.60
2023-03-15T04:56:08.133Z,1.73
2023-03-15T04:58:36.562Z,1.60
2023-03-15T05:01:06.149Z,1.60
2023-03-15T05:03:34.072Z,1.70
2023-03-15T05:06:07.960Z,1.47
2023-03-15T05:08:36.950Z,1.90
2023-03-15T05:11:05.444Z,1.53
2023-03-15T05:13:33.441Z,1.77
2023-03-15T05:16:01.443Z,1.60
2023-03-15T05:18:30.690Z,1.80
2023-03-15T05:20:58.587Z,1.83
2023-03-15T05:23:26.762Z,1.67
2023-03-15T05:25:55.856Z,1.70
2023-03-15T05:28:25.077Z,1.53
2023-03-15T05:30:53.904Z,1.90
2023-03-15T05:33:22.036Z,1.50
2023-03-15T05:35:53.044Z,2.00
2023-03-15T05:38:26.415Z,1.90
2023-03-15T05:40:54.971Z,2.23
2023-03-15T05:43:23.112Z,1.90
2023-03-15T05:45:51.340Z,1.80
2023-03-15T05:48:19.204Z,2.00
2023-03-15T05:50:46.990Z,1.80
2023-03-15T11:38:25.048Z,1.00
2023-03-15T11:40:57.180Z,1.00
2023-03-15T11:43:30.888Z,0.67
2023-03-15T11:46:01.480Z,1.30
2023-03-15T11:48:32.918Z,1.00
2023-03-15T11:51:02.206Z,1.00
2023-03-15T11:53:37.834Z,0.90
2023-03-15T11:56:23.082Z,0.80
2023-03-15T11:59:05.163Z,1.37
2023-03-15T12:01:36.869Z,1.50
2023-03-15T12:04:46.762Z,0.90
2023-03-15T12:07:36.785Z,0.83
2023-03-15T12:10:32.660Z,1.23
2023-03-15T12:13:08.685Z,1.20
2023-03-15T12:15:46.423Z,1.50
2023-03-15T12:18:25.867Z,1.60
2023-03-15T12:21:06.890Z,1.47
2023-03-15T12:23:41.081Z,1.50
2023-03-15T12:26:24.118Z,1.30
2023-03-15T12:28:54.566Z,1.30
2023-03-15T12:31:22.645Z,1.50
2023-03-15T12:33:58.301Z,1.10
2023-03-15T12:36:35.499Z,1.30
2023-03-15T12:39:22.059Z,1.10
2023-03-15T12:41:52.382Z,1.10
2023-03-15T12:44:38.592Z,0.90
2023-03-15T12:47:07.445Z,1.00
2023-03-15T12:49:42.974Z,1.20
2023-03-15T12:52:40.439Z,1.13
2023-03-15T12:55:15.980Z,1.00
2023-03-15T12:57:50.497Z,1.00
2023-03-15T13:00:22.335Z,1.10
2023-03-15T13:02:54.231Z,1.20
2023-03-15T13:05:26.338Z,0.90
2023-03-15T13:07:57.605Z,1.00
2023-03-15T13:10:37.789Z,1.13
2023-03-15T13:13:18.310Z,0.80
2023-03-15T13:15:58.975Z,0.90
2023-03-15T13:18:34.228Z,1.00
2023-03-15T13:21:14.355Z,1.30
2023-03-15T13:23:49.144Z,0.97
2023-03-15T13:26:26.903Z,1.00
2023-03-15T13:29:01.766Z,1.23
2023-03-15T13:31:32.120Z,1.13
2023-03-15T13:34:12.241Z,0.90
2023-03-15T13:36:46.027Z,0.88
2023-03-15T13:39:20.569Z,1.00
2023-03-15T13:41:48.418Z,0.80
2023-03-15T13:44:22.222Z,1.15
2023-03-15T13:46:50.921Z,0.70
2023-03-15T13:49:19.782Z,1.03
2023-03-15T13:51:49.054Z,1.00
2023-03-15T13:54:19.229Z,1.20
2023-03-15T13:56:57.850Z,1.05
2023-03-15T13:59:33.091Z,0.90
2023-03-15T14:02:03.491Z,1.10
2023-03-15T14:04:36.639Z,1.02
2023-03-15T14:07:27.261Z,0.90
2023-03-15T14:10:23.029Z,0.80
2023-03-15T14:12:52.086Z,0.90
2023-03-15T14:15:24.852Z,0.70
2023-03-15T14:17:55.628Z,0.60
2023-03-15T14:20:29.693Z,0.90
2023-03-15T14:23:03.091Z,1.08
2023-03-15T14:25:36.759Z,1.00
2023-03-15T14:28:06.365Z,0.90
2023-03-15T14:30:38.037Z,1.35
2023-03-15T14:33:08.695Z,0.90
2023-03-15T14:35:46.060Z,1.38
2023-03-15T14:38:20.033Z,0.95
2023-03-15T14:40:48.432Z,1.00
2023-03-15T14:43:16.638Z,1.02
2023-03-15T14:45:48.554Z,0.80
2023-03-15T14:48:23.274Z,1.00
2023-03-15T14:50:51.164Z,1.02
2023-03-15T14:53:21.780Z,0.60
2023-03-15T14:55:49.651Z,0.80
2023-03-15T14:58:19.064Z,0.98
2023-03-15T15:00:50.121Z,1.27
2023-03-15T15:03:22.152Z,1.50
2023-03-15T15:05:52.295Z,1.08
2023-03-15T15:08:22.650Z,0.70
2023-03-15T15:10:53.860Z,1.02
2023-03-15T15:13:24.160Z,1.13
2023-03-15T15:15:57.105Z,1.15
2023-03-15T15:18:26.166Z,1.13
2023-03-15T15:20:56.133Z,1.05
2023-03-15T15:23:26.958Z,0.95
2023-03-15T15:25:57.883Z,1.10
2023-03-15T15:28:33.868Z,1.00
2023-03-15T15:31:06.291Z,0.93
2023-03-15T15:33:34.457Z,0.80
2023-03-15T15:36:02.715Z,1.33
2023-03-15T15:38:34.850Z,1.17
2023-03-15T15:41:03.858Z,1.75
2023-03-15T15:43:33.666Z,1.67
2023-03-15T15:46:02.083Z,2.53
2023-03-15T15:48:31.888Z,2.17
2023-03-15T15:50:59.787Z,1.25
2023-03-15T15:53:33.267Z,1.38
2023-03-15T15:56:01.152Z,1.27
2023-03-15T15:58:29.283Z,1.20
2023-03-15T16:00:57.386Z,0.98
2023-03-15T16:03:26.038Z,0.95
2023-03-15T16:05:55.918Z,1.42
2023-03-15T16:08:25.709Z,0.80
2023-03-15T16:10:55.191Z,1.15
2023-03-15T16:13:23.085Z,1.30
2023-03-15T16:15:51.036Z,0.93
2023-03-15T16:18:19.003Z,1.00
2023-03-15T16:20:46.930Z,1.00
2023-03-15T16:23:21.810Z,1.10
2023-03-15T16:25:51.804Z,1.23
2023-03-15T16:28:19.826Z,1.25
2023-03-15T16:30:47.819Z,1.15
2023-03-15T16:33:17.273Z,1.10
2023-03-15T16:35:46.123Z,1.10
2023-03-15T16:38:24.137Z,0.85
2023-03-15T16:40:53.401Z,1.30
2023-03-15T16:43:21.776Z,1.00
2023-03-15T16:45:49.631Z,1.00
2023-03-15T16:48:17.475Z,1.40
2023-03-15T16:50:46.558Z,1.87
2023-03-15T16:53:15.481Z,1.83
2023-03-15T16:55:45.614Z,1.73
2023-03-15T16:58:19.213Z,1.50
2023-03-15T17:00:48.476Z,1.37
2023-03-15T17:03:17.437Z,0.90
2023-03-15T17:05:47.543Z,0.93
2023-03-15T17:08:18.988Z,1.23
2023-03-15T17:10:49.216Z,1.03
2023-03-15T17:13:21.834Z,0.90
2023-03-15T17:15:49.908Z,0.80
2023-03-15T17:18:20.330Z,1.60
2023-03-15T17:20:50.238Z,0.80
2023-03-15T17:23:21.240Z,1.37
2023-03-15T17:25:50.713Z,0.93
2023-03-15T17:28:18.743Z,1.20
2023-03-15T17:30:46.661Z,1.20
2023-03-15T17:33:15.310Z,1.20
2023-03-15T17:35:48.495Z,1.00
2023-03-15T17:38:19.695Z,1.00
2023-03-15T17:40:47.873Z,0.90
2023-03-15T17:43:18.043Z,1.10
2023-03-15T17:45:45.977Z,1.17
2023-03-15T17:48:14.157Z,1.23
2023-03-15T17:50:45.136Z,1.30
2023-03-15T17:53:16.886Z,1.20
2023-03-15T17:55:47.079Z,1.10
2023-03-15T17:58:21.341Z,1.17
2023-03-15T18:00:50.956Z,1.27
2023-03-15T18:03:19.292Z,1.47
2023-03-15T18:05:47.510Z,1.43
2023-03-15T18:08:18.837Z,1.90
2023-03-15T18:10:49.063Z,1.67
2023-03-15T18:13:21.580Z,1.50
2023-03-15T18:15:53.296Z,1.57
2023-03-15T18:18:22.041Z,1.57
2023-03-15T18:20:50.431Z,1.50
2023-03-15T18:23:18.993Z,1.40
2023-03-15T18:25:48.490Z,1.90
2023-03-15T18:28:17.878Z,1.30
2023-03-15T18:30:46.409Z,1.47
2023-03-15T18:33:15.962Z,1.60
2023-03-15T18:35:44.887Z,1.23
2023-03-15T18:38:12.739Z,1.40
2023-03-15T18:40:40.698Z,1.47
2023-03-15T18:43:12.438Z,1.40
2023-03-15T18:45:42.984Z,1.60
2023-03-15T18:48:10.902Z,1.60
2023-03-15T18:50:38.923Z,2.00
2023-03-15T18:53:06.875Z,1.47
2023-03-15T18:55:35.820Z,1.63
2023-03-15T18:58:04.687Z,2.27
2023-03-15T19:00:35.964Z,1.90
2023-03-15T19:03:06.741Z,1.80
2023-03-15T19:05:36.924Z,1.60
2023-03-15T19:08:05.012Z,1.90
2023-03-15T19:10:33.092Z,1.80
2023-03-15T19:13:02.438Z,2.03
2023-03-15T19:15:32.671Z,1.90
2023-03-15T19:18:00.944Z,2.07
2023-03-15T19:20:30.759Z,2.60
2023-03-15T19:22:58.598Z,2.40
2023-03-15T19:25:26.738Z,2.53
2023-03-15T19:27:54.563Z,2.23
2023-03-15T19:30:22.562Z,2.03
2023-03-15T19:32:51.603Z,1.93
2023-03-15T19:35:21.395Z,2.50
2023-03-15T19:37:51.260Z,2.47
2023-03-15T19:40:20.292Z,2.00
2023-03-15T19:42:49.538Z,2.10
2023-03-15T19:45:18.502Z,2.03
2023-03-15T19:47:47.057Z,1.83
2023-03-15T19:50:16.095Z,2.03
2023-03-15T19:52:46.891Z,1.83
2023-03-15T19:55:18.303Z,2.30
2023-03-15T19:57:46.217Z,2.10
2023-03-15T20:00:15.951Z,2.03
2023-03-15T20:02:45.430Z,2.60
2023-03-15T20:05:15.375Z,2.43
2023-03-15T20:07:44.550Z,2.37
2023-03-15T20:10:13.592Z,2.40
2023-03-15T20:12:45.346Z,2.13
2023-03-15T20:15:14.620Z,2.03
2023-03-15T20:17:44.063Z,2.47
2023-03-15T20:20:13.811Z,2.27
2023-03-15T20:22:44.509Z,2.70
2023-03-15T20:25:13.713Z,2.47
2023-03-15T20:27:42.948Z,2.40
2023-03-15T20:30:14.498Z,2.37
2023-03-15T20:32:42.891Z,2.20
2023-03-15T20:35:11.961Z,2.30
2023-03-15T20:37:42.989Z,2.27
2023-03-15T20:40:14.322Z,1.83
2023-03-15T20:42:44.337Z,2.03
2023-03-15T20:45:13.814Z,2.07
2023-03-15T20:47:41.934Z,1.90
2023-03-15T20:50:11.441Z,2.07
2023-03-15T20:52:39.306Z,2.10
2023-03-15T20:55:08.072Z,1.87
2023-03-15T20:57:39.547Z,1.90
2023-03-15T21:00:13.869Z,2.00
2023-03-15T21:02:42.364Z,2.17
2023-03-15T21:05:13.095Z,2.20
2023-03-15T21:07:41.417Z,2.40
2023-03-15T21:10:14.122Z,2.60
2023-03-15T21:12:44.065Z,2.80
2023-03-15T21:15:19.113Z,2.13
2023-03-15T21:17:49.284Z,2.00
2023-03-15T21:20:17.766Z,2.10
2023-03-15T21:22:45.800Z,2.00
2023-03-15T21:25:13.744Z,1.77
2023-03-15T21:27:41.943Z,2.00
2023-03-15T21:30:16.165Z,2.37
2023-03-15T21:32:45.805Z,2.00
2023-03-15T21:35:14.128Z,2.00
2023-03-15T21:37:43.092Z,2.03
2023-03-15T21:40:13.896Z,1.93
2023-03-15T21:42:43.115Z,2.53
2023-03-15T21:45:12.816Z,2.37
2023-03-15T21:47:43.220Z,2.10
2023-03-15T21:50:12.904Z,2.07
2023-03-15T21:52:40.864Z,2.03
2023-03-15T21:55:10.049Z,2.03
2023-03-15T21:57:38.770Z,2.10
2023-03-15T22:00:11.771Z,2.30
2023-03-15T22:02:41.084Z,2.03
2023-03-15T22:05:10.922Z,2.40
2023-03-15T22:07:38.886Z,2.60
2023-03-15T22:10:09.659Z,2.10
2023-03-15T22:12:38.779Z,2.30
2023-03-15T22:15:08.019Z,2.20
2023-03-15T22:17:36.112Z,2.23
2023-03-15T22:20:16.391Z,3.13
2023-03-15T22:22:45.102Z,2.37
2023-03-15T22:25:13.615Z,2.37
2023-03-15T22:27:41.700Z,2.60
2023-03-15T22:30:10.851Z,2.80
2023-03-15T22:32:38.758Z,2.47
2023-03-15T22:35:08.911Z,3.37
2023-03-15T22:37:37.272Z,2.33
2023-03-15T22:40:06.461Z,2.70
2023-03-15T22:42:34.496Z,2.47
2023-03-15T22:45:04.361Z,2.53
2023-03-15T22:47:32.710Z,2.63
2023-03-15T22:50:00.655Z,2.40
2023-03-15T22:52:29.985Z,2.30
2023-03-15T22:54:57.856Z,2.70
2023-03-15T22:57:25.681Z,2.67
2023-03-15T22:59:53.524Z,2.37
2023-03-15T23:02:21.553Z,2.37
2023-03-15T23:04:49.487Z,2.37
2023-03-15T23:07:17.382Z,2.30
2023-03-15T23:09:47.166Z,2.33
2023-03-15T23:12:18.138Z,2.70
2023-03-15T23:14:49.619Z,3.40
2023-03-15T23:17:17.519Z,2.40
2023-03-15T23:19:45.762Z,2.30
2023-03-15T23:22:13.769Z,3.00
2023-03-15T23:24:41.663Z,2.43
2023-03-15T23:27:11.685Z,2.47
2023-03-15T23:29:53.306Z,2.60
2023-03-15T23:32:22.788Z,2.33
2023-03-15T23:34:51.035Z,2.33
2023-03-15T23:37:19.047Z,2.73
2023-03-15T23:39:46.994Z,2.70
2023-03-15T23:42:16.597Z,2.40
2023-03-15T23:44:45.655Z,2.57
2023-03-15T23:47:13.894Z,2.43
2023-03-15T23:49:43.058Z,2.10
2023-03-15T23:52:11.016Z,2.50
2023-03-15T23:54:41.223Z,2.27
2023-03-15T23:57:11.054Z,2.60
2023-03-15T23:59:41.675Z,2.60
